sensor_id;sensor_type;location;lat;lon;timestamp;pressure;altitude;pressure_sealevel;temperature;humidity
3260;BME280;68938;48.150;14.004;2024-02-23T00:02:05;95929.97;;;10.83;65.47
3260;BME280;68938;48.150;14.004;2024-02-23T00:04:32;95928.88;;;10.74;65.99
3260;BME280;68938;48.150;14.004;2024-02-23T00:06:59;95937.69;;;10.70;66.48
3260;BME280;68938;48.150;14.004;2024-02-23T00:09:26;95950.50;;;10.70;66.78
3260;BME280;68938;48.150;14.004;2024-02-23T00:11:53;95961.25;;;10.62;66.95
3260;BME280;68938;48.150;14.004;2024-02-23T00:14:20;95958.78;;;10.61;67.05
3260;BME280;68938;48.150;14.004;2024-02-23T00:16:47;95959.28;;;10.66;67.10
3260;BME280;68938;48.150;14.004;2024-02-23T00:19:14;95954.97;;;10.66;67.20
3260;BME280;68938;48.150;14.004;2024-02-23T00:21:41;95947.94;;;10.70;67.10
3260;BME280;68938;48.150;14.004;2024-02-23T00:24:08;95945.06;;;10.75;66.83
3260;BME280;68938;48.150;14.004;2024-02-23T00:26:35;95954.19;;;10.79;66.76
3260;BME280;68938;48.150;14.004;2024-02-23T00:29:02;95959.09;;;10.69;66.77
3260;BME280;68938;48.150;14.004;2024-02-23T00:31:29;95961.53;;;10.58;67.50
3260;BME280;68938;48.150;14.004;2024-02-23T00:33:56;95974.38;;;10.58;67.98
3260;BME280;68938;48.150;14.004;2024-02-23T00:36:23;95985.75;;;10.54;67.86
3260;BME280;68938;48.150;14.004;2024-02-23T00:38:50;96001.19;;;10.52;68.24
3260;BME280;68938;48.150;14.004;2024-02-23T00:41:17;96002.00;;;10.40;68.53
3260;BME280;68938;48.150;14.004;2024-02-23T00:43:44;96004.06;;;10.48;68.23
3260;BME280;68938;48.150;14.004;2024-02-23T00:46:11;96016.56;;;10.52;68.08
3260;BME280;68938;48.150;14.004;2024-02-23T00:48:41;96014.63;;;10.56;68.00
3260;BME280;68938;48.150;14.004;2024-02-23T00:51:08;96025.91;;;10.12;69.70
3260;BME280;68938;48.150;14.004;2024-02-23T00:53:35;96040.72;;;9.80;71.74
3260;BME280;68938;48.150;14.004;2024-02-23T00:56:02;96045.81;;;9.80;71.26
3260;BME280;68938;48.150;14.004;2024-02-23T00:58:29;96035.50;;;9.95;71.31
3260;BME280;68938;48.150;14.004;2024-02-23T01:00:56;96047.78;;;10.17;70.25
3260;BME280;68938;48.150;14.004;2024-02-23T01:03:23;96051.69;;;10.37;69.69
3260;BME280;68938;48.150;14.004;2024-02-23T01:05:50;96044.88;;;10.51;69.05
3260;BME280;68938;48.150;14.004;2024-02-23T01:08:17;96059.47;;;10.63;68.71
3260;BME280;68938;48.150;14.004;2024-02-23T01:10:44;96053.31;;;10.65;68.81
3260;BME280;68938;48.150;14.004;2024-02-23T01:13:12;96045.97;;;10.74;68.29
3260;BME280;68938;48.150;14.004;2024-02-23T01:15:39;96074.69;;;10.79;68.67
3260;BME280;68938;48.150;14.004;2024-02-23T01:18:06;96080.31;;;10.71;69.34
3260;BME280;68938;48.150;14.004;2024-02-23T01:20:33;96083.91;;;10.68;68.74
3260;BME280;68938;48.150;14.004;2024-02-23T01:23:01;96077.66;;;10.73;69.07
3260;BME280;68938;48.150;14.004;2024-02-23T01:25:28;96098.91;;;10.75;69.42
3260;BME280;68938;48.150;14.004;2024-02-23T01:27:55;96124.16;;;10.54;70.46
3260;BME280;68938;48.150;14.004;2024-02-23T01:30:22;96138.44;;;10.15;72.00
3260;BME280;68938;48.150;14.004;2024-02-23T01:32:49;96155.38;;;10.03;73.37
3260;BME280;68938;48.150;14.004;2024-02-23T01:35:16;96195.47;;;9.74;75.20
3260;BME280;68938;48.150;14.004;2024-02-23T01:37:43;96257.91;;;9.57;76.75
3260;BME280;68938;48.150;14.004;2024-02-23T01:40:10;96274.28;;;9.69;76.88
3260;BME280;68938;48.150;14.004;2024-02-23T01:42:37;96261.72;;;9.34;79.06
3260;BME280;68938;48.150;14.004;2024-02-23T01:45:05;96260.69;;;9.53;80.23
3260;BME280;68938;48.150;14.004;2024-02-23T01:47:32;96259.78;;;9.84;79.08
3260;BME280;68938;48.150;14.004;2024-02-23T01:50:00;96257.44;;;9.95;79.15
3260;BME280;68938;48.150;14.004;2024-02-23T01:52:27;96253.97;;;10.10;79.01
3260;BME280;68938;48.150;14.004;2024-02-23T01:54:54;96262.88;;;10.19;78.53
3260;BME280;68938;48.150;14.004;2024-02-23T01:57:23;96255.50;;;10.43;77.56
3260;BME280;68938;48.150;14.004;2024-02-23T02:00:16;96250.75;;;10.37;77.26
3260;BME280;68938;48.150;14.004;2024-02-23T02:02:44;96246.91;;;10.44;76.85
3260;BME280;68938;48.150;14.004;2024-02-23T02:05:11;96238.81;;;10.79;75.20
3260;BME280;68938;48.150;14.004;2024-02-23T02:07:40;96237.34;;;10.75;75.67
3260;BME280;68938;48.150;14.004;2024-02-23T02:10:09;96238.97;;;11.04;74.42
3260;BME280;68938;48.150;14.004;2024-02-23T02:12:36;96244.22;;;11.15;73.96
3260;BME280;68938;48.150;14.004;2024-02-23T02:15:04;96233.16;;;11.42;73.04
3260;BME280;68938;48.150;14.004;2024-02-23T02:17:31;96253.25;;;11.35;73.28
3260;BME280;68938;48.150;14.004;2024-02-23T02:20:04;96257.78;;;11.45;72.75
3260;BME280;68938;48.150;14.004;2024-02-23T02:22:32;96263.22;;;11.40;72.81
3260;BME280;68938;48.150;14.004;2024-02-23T02:24:59;96273.50;;;10.99;74.12
3260;BME280;68938;48.150;14.004;2024-02-23T02:27:27;96281.22;;;10.84;74.47
3260;BME280;68938;48.150;14.004;2024-02-23T02:29:54;96267.72;;;10.95;74.71
3260;BME280;68938;48.150;14.004;2024-02-23T02:32:21;96285.72;;;10.81;75.05
3260;BME280;68938;48.150;14.004;2024-02-23T02:34:48;96280.75;;;10.78;75.11
3260;BME280;68938;48.150;14.004;2024-02-23T02:37:15;96280.59;;;10.81;75.48
3260;BME280;68938;48.150;14.004;2024-02-23T02:39:42;96285.13;;;10.90;74.64
3260;BME280;68938;48.150;14.004;2024-02-23T02:42:09;96285.53;;;11.11;73.86
3260;BME280;68938;48.150;14.004;2024-02-23T02:44:36;96288.84;;;11.13;73.79
3260;BME280;68938;48.150;14.004;2024-02-23T02:47:03;96297.59;;;10.96;74.02
3260;BME280;68938;48.150;14.004;2024-02-23T02:49:30;96295.75;;;10.98;74.17
3260;BME280;68938;48.150;14.004;2024-02-23T02:51:57;96305.03;;;10.72;74.97
3260;BME280;68938;48.150;14.004;2024-02-23T02:54:24;96315.91;;;10.76;75.62
3260;BME280;68938;48.150;14.004;2024-02-23T02:56:51;96319.94;;;10.65;75.88
3260;BME280;68938;48.150;14.004;2024-02-23T02:59:18;96318.47;;;10.90;74.85
3260;BME280;68938;48.150;14.004;2024-02-23T03:01:45;96321.78;;;10.92;74.81
3260;BME280;68938;48.150;14.004;2024-02-23T03:04:12;96313.44;;;10.88;74.44
3260;BME280;68938;48.150;14.004;2024-02-23T03:06:39;96324.59;;;10.73;74.93
3260;BME280;68938;48.150;14.004;2024-02-23T03:09:06;96321.50;;;10.97;74.49
3260;BME280;68938;48.150;14.004;2024-02-23T03:11:33;96324.03;;;11.11;73.86
3260;BME280;68938;48.150;14.004;2024-02-23T03:14:01;96324.97;;;10.96;74.34
3260;BME280;68938;48.150;14.004;2024-02-23T03:16:28;96323.69;;;11.03;73.67
3260;BME280;68938;48.150;14.004;2024-02-23T03:18:55;96319.28;;;11.19;73.02
3260;BME280;68938;48.150;14.004;2024-02-23T03:21:22;96322.28;;;11.26;72.55
3260;BME280;68938;48.150;14.004;2024-02-23T03:23:49;96326.97;;;11.19;72.88
3260;BME280;68938;48.150;14.004;2024-02-23T03:26:15;96324.69;;;11.14;72.88
3260;BME280;68938;48.150;14.004;2024-02-23T03:28:43;96326.78;;;11.22;72.74
3260;BME280;68938;48.150;14.004;2024-02-23T03:31:10;96334.56;;;11.21;72.46
3260;BME280;68938;48.150;14.004;2024-02-23T03:33:37;96333.19;;;11.29;72.75
3260;BME280;68938;48.150;14.004;2024-02-23T03:36:04;96332.69;;;11.37;71.56
3260;BME280;68938;48.150;14.004;2024-02-23T03:38:31;96332.44;;;11.27;71.69
3260;BME280;68938;48.150;14.004;2024-02-23T03:40:58;96336.59;;;11.15;72.28
3260;BME280;68938;48.150;14.004;2024-02-23T03:43:25;96340.06;;;11.29;71.82
3260;BME280;68938;48.150;14.004;2024-02-23T03:45:52;96334.09;;;11.14;72.19
3260;BME280;68938;48.150;14.004;2024-02-23T03:48:19;96346.09;;;11.28;71.63
3260;BME280;68938;48.150;14.004;2024-02-23T03:50:46;96357.28;;;11.27;71.37
3260;BME280;68938;48.150;14.004;2024-02-23T03:53:13;96344.00;;;11.20;71.26
3260;BME280;68938;48.150;14.004;2024-02-23T03:55:40;96355.50;;;11.14;71.02
3260;BME280;68938;48.150;14.004;2024-02-23T03:58:07;96357.59;;;11.08;71.25
3260;BME280;68938;48.150;14.004;2024-02-23T04:00:34;96365.03;;;10.98;71.35
3260;BME280;68938;48.150;14.004;2024-02-23T04:03:01;96371.50;;;10.89;71.21
3260;BME280;68938;48.150;14.004;2024-02-23T04:05:28;96373.44;;;11.14;70.78
3260;BME280;68938;48.150;14.004;2024-02-23T04:07:55;96376.72;;;11.31;69.54
3260;BME280;68938;48.150;14.004;2024-02-23T04:10:22;96386.59;;;11.37;68.91
3260;BME280;68938;48.150;14.004;2024-02-23T04:12:49;96386.53;;;11.38;68.84
3260;BME280;68938;48.150;14.004;2024-02-23T04:15:16;96393.84;;;11.30;69.26
3260;BME280;68938;48.150;14.004;2024-02-23T04:17:42;96393.13;;;11.28;68.86
3260;BME280;68938;48.150;14.004;2024-02-23T04:20:10;96384.16;;;11.35;68.82
3260;BME280;68938;48.150;14.004;2024-02-23T04:22:37;96390.84;;;11.09;69.38
3260;BME280;68938;48.150;14.004;2024-02-23T04:25:04;96391.56;;;11.26;69.18
3260;BME280;68938;48.150;14.004;2024-02-23T04:27:32;96400.28;;;10.95;69.61
3260;BME280;68938;48.150;14.004;2024-02-23T04:29:58;96409.97;;;11.04;69.26
3260;BME280;68938;48.150;14.004;2024-02-23T04:32:25;96407.97;;;10.80;70.01
3260;BME280;68938;48.150;14.004;2024-02-23T04:34:52;96411.38;;;10.95;69.92
3260;BME280;68938;48.150;14.004;2024-02-23T04:37:19;96416.31;;;11.12;69.15
3260;BME280;68938;48.150;14.004;2024-02-23T04:39:46;96416.41;;;11.25;68.34
3260;BME280;68938;48.150;14.004;2024-02-23T04:42:13;96416.31;;;11.27;67.92
3260;BME280;68938;48.150;14.004;2024-02-23T04:44:43;96417.13;;;11.13;68.23
3260;BME280;68938;48.150;14.004;2024-02-23T04:47:10;96406.31;;;10.94;67.89
3260;BME280;68938;48.150;14.004;2024-02-23T04:49:37;96411.84;;;10.87;68.24
3260;BME280;68938;48.150;14.004;2024-02-23T04:52:05;96414.28;;;10.89;68.10
3260;BME280;68938;48.150;14.004;2024-02-23T04:54:34;96410.38;;;11.12;67.50
3260;BME280;68938;48.150;14.004;2024-02-23T04:57:01;96407.34;;;11.05;67.24
3260;BME280;68938;48.150;14.004;2024-02-23T04:59:28;96405.50;;;10.93;67.88
3260;BME280;68938;48.150;14.004;2024-02-23T05:01:55;96412.00;;;10.84;68.41
3260;BME280;68938;48.150;14.004;2024-02-23T05:04:22;96410.25;;;10.71;68.77
3260;BME280;68938;48.150;14.004;2024-02-23T05:06:49;96410.81;;;10.90;68.34
3260;BME280;68938;48.150;14.004;2024-02-23T05:09:16;96409.97;;;10.89;68.22
3260;BME280;68938;48.150;14.004;2024-02-23T05:11:43;96411.19;;;10.98;67.79
3260;BME280;68938;48.150;14.004;2024-02-23T05:14:10;96407.81;;;10.98;67.20
3260;BME280;68938;48.150;14.004;2024-02-23T05:16:37;96403.03;;;10.91;67.87
3260;BME280;68938;48.150;14.004;2024-02-23T05:19:04;96406.56;;;10.60;68.34
3260;BME280;68938;48.150;14.004;2024-02-23T05:21:31;96409.63;;;10.81;67.77
3260;BME280;68938;48.150;14.004;2024-02-23T05:23:58;96404.78;;;10.91;67.29
3260;BME280;68938;48.150;14.004;2024-02-23T05:26:25;96409.31;;;10.72;67.98
3260;BME280;68938;48.150;14.004;2024-02-23T05:28:52;96392.22;;;10.86;67.46
3260;BME280;68938;48.150;14.004;2024-02-23T05:31:19;96395.59;;;10.87;67.53
3260;BME280;68938;48.150;14.004;2024-02-23T05:33:46;96402.41;;;10.88;67.37
3260;BME280;68938;48.150;14.004;2024-02-23T05:36:15;96410.63;;;10.93;67.11
3260;BME280;68938;48.150;14.004;2024-02-23T05:38:42;96407.88;;;10.96;66.92
3260;BME280;68938;48.150;14.004;2024-02-23T05:41:12;96412.88;;;10.69;67.60
3260;BME280;68938;48.150;14.004;2024-02-23T05:43:39;96418.94;;;10.68;67.79
3260;BME280;68938;48.150;14.004;2024-02-23T05:46:06;96414.25;;;10.60;67.95
3260;BME280;68938;48.150;14.004;2024-02-23T05:48:33;96415.53;;;10.53;67.27
3260;BME280;68938;48.150;14.004;2024-02-23T05:51:01;96412.88;;;10.69;66.65
3260;BME280;68938;48.150;14.004;2024-02-23T05:53:27;96409.16;;;10.89;66.65
3260;BME280;68938;48.150;14.004;2024-02-23T05:55:54;96413.75;;;10.84;66.68
3260;BME280;68938;48.150;14.004;2024-02-23T05:58:21;96417.78;;;11.02;66.03
3260;BME280;68938;48.150;14.004;2024-02-23T06:00:48;96418.53;;;11.19;65.42
3260;BME280;68938;48.150;14.004;2024-02-23T06:03:15;96421.81;;;11.21;65.02
3260;BME280;68938;48.150;14.004;2024-02-23T06:05:42;96428.50;;;11.23;65.48
3260;BME280;68938;48.150;14.004;2024-02-23T06:08:09;96434.81;;;11.18;65.75
3260;BME280;68938;48.150;14.004;2024-02-23T06:10:36;96443.44;;;11.31;65.19
3260;BME280;68938;48.150;14.004;2024-02-23T06:13:03;96444.53;;;11.12;66.07
3260;BME280;68938;48.150;14.004;2024-02-23T06:15:30;96447.47;;;11.06;66.41
3260;BME280;68938;48.150;14.004;2024-02-23T06:17:57;96458.56;;;11.21;66.04
3260;BME280;68938;48.150;14.004;2024-02-23T06:20:24;96471.03;;;11.27;66.20
3260;BME280;68938;48.150;14.004;2024-02-23T06:22:51;96476.44;;;11.23;65.59
3260;BME280;68938;48.150;14.004;2024-02-23T06:25:18;96471.78;;;11.15;66.06
3260;BME280;68938;48.150;14.004;2024-02-23T06:27:45;96470.03;;;11.15;66.15
3260;BME280;68938;48.150;14.004;2024-02-23T06:30:12;96464.50;;;11.07;66.88
3260;BME280;68938;48.150;14.004;2024-02-23T06:32:39;96469.00;;;11.04;66.92
3260;BME280;68938;48.150;14.004;2024-02-23T06:35:07;96468.00;;;11.06;66.82
3260;BME280;68938;48.150;14.004;2024-02-23T06:37:34;96472.31;;;11.06;66.70
3260;BME280;68938;48.150;14.004;2024-02-23T06:40:01;96490.88;;;10.95;66.93
3260;BME280;68938;48.150;14.004;2024-02-23T06:42:28;96500.06;;;10.99;66.98
3260;BME280;68938;48.150;14.004;2024-02-23T06:44:55;96505.81;;;11.03;66.92
3260;BME280;68938;48.150;14.004;2024-02-23T06:47:22;96491.59;;;10.97;67.19
3260;BME280;68938;48.150;14.004;2024-02-23T06:49:49;96501.03;;;10.97;67.45
3260;BME280;68938;48.150;14.004;2024-02-23T06:52:16;96501.50;;;10.89;67.68
3260;BME280;68938;48.150;14.004;2024-02-23T06:54:43;96516.53;;;10.95;67.32
3260;BME280;68938;48.150;14.004;2024-02-23T06:57:10;96511.31;;;10.97;67.52
3260;BME280;68938;48.150;14.004;2024-02-23T06:59:37;96516.38;;;10.98;67.50
3260;BME280;68938;48.150;14.004;2024-02-23T07:02:04;96519.47;;;11.03;67.38
3260;BME280;68938;48.150;14.004;2024-02-23T07:04:31;96521.78;;;11.08;67.43
3260;BME280;68938;48.150;14.004;2024-02-23T07:06:58;96530.22;;;11.10;67.36
3260;BME280;68938;48.150;14.004;2024-02-23T07:09:25;96522.44;;;11.11;66.93
3260;BME280;68938;48.150;14.004;2024-02-23T07:11:52;96528.41;;;11.12;67.45
3260;BME280;68938;48.150;14.004;2024-02-23T07:14:19;96535.28;;;11.11;67.30
3260;BME280;68938;48.150;14.004;2024-02-23T07:16:46;96534.41;;;11.11;67.45
3260;BME280;68938;48.150;14.004;2024-02-23T07:19:13;96533.25;;;11.17;67.52
3260;BME280;68938;48.150;14.004;2024-02-23T07:21:40;96539.38;;;11.14;67.31
3260;BME280;68938;48.150;14.004;2024-02-23T07:24:09;96538.84;;;11.09;67.49
3260;BME280;68938;48.150;14.004;2024-02-23T07:26:36;96531.03;;;11.10;67.52
3260;BME280;68938;48.150;14.004;2024-02-23T07:29:03;96528.41;;;11.12;67.16
3260;BME280;68938;48.150;14.004;2024-02-23T07:31:30;96529.22;;;11.12;67.11
3260;BME280;68938;48.150;14.004;2024-02-23T07:33:57;96523.09;;;11.15;67.44
3260;BME280;68938;48.150;14.004;2024-02-23T07:36:24;96526.31;;;11.19;67.65
3260;BME280;68938;48.150;14.004;2024-02-23T07:38:51;96525.72;;;11.13;67.49
3260;BME280;68938;48.150;14.004;2024-02-23T07:41:18;96536.47;;;11.20;67.33
3260;BME280;68938;48.150;14.004;2024-02-23T07:43:45;96536.28;;;11.23;67.54
3260;BME280;68938;48.150;14.004;2024-02-23T07:46:13;96538.31;;;11.18;67.26
3260;BME280;68938;48.150;14.004;2024-02-23T07:48:39;96539.19;;;11.17;66.54
3260;BME280;68938;48.150;14.004;2024-02-23T07:51:07;96543.63;;;11.15;66.69
3260;BME280;68938;48.150;14.004;2024-02-23T07:53:34;96534.63;;;11.08;66.29
3260;BME280;68938;48.150;14.004;2024-02-23T07:56:02;96543.97;;;11.09;66.35
3260;BME280;68938;48.150;14.004;2024-02-23T07:58:29;96539.94;;;11.05;66.43
3260;BME280;68938;48.150;14.004;2024-02-23T08:00:56;96539.75;;;11.08;66.85
3260;BME280;68938;48.150;14.004;2024-02-23T08:03:23;96542.88;;;11.13;66.91
3260;BME280;68938;48.150;14.004;2024-02-23T08:06:01;96546.34;;;11.12;66.87
3260;BME280;68938;48.150;14.004;2024-02-23T08:08:29;96546.53;;;11.09;66.84
3260;BME280;68938;48.150;14.004;2024-02-23T08:10:56;96544.63;;;11.12;66.51
3260;BME280;68938;48.150;14.004;2024-02-23T08:13:23;96537.19;;;11.08;66.76
3260;BME280;68938;48.150;14.004;2024-02-23T08:15:50;96531.22;;;11.07;66.59
3260;BME280;68938;48.150;14.004;2024-02-23T08:18:17;96535.63;;;11.05;66.22
3260;BME280;68938;48.150;14.004;2024-02-23T08:20:46;96538.34;;;11.02;66.27
3260;BME280;68938;48.150;14.004;2024-02-23T08:23:13;96544.19;;;10.90;66.50
3260;BME280;68938;48.150;14.004;2024-02-23T08:25:40;96553.72;;;10.88;66.58
3260;BME280;68938;48.150;14.004;2024-02-23T08:28:07;96551.00;;;10.75;67.04
3260;BME280;68938;48.150;14.004;2024-02-23T08:30:34;96551.03;;;10.59;66.96
3260;BME280;68938;48.150;14.004;2024-02-23T08:33:01;96543.34;;;10.12;68.25
3260;BME280;68938;48.150;14.004;2024-02-23T08:35:28;96552.97;;;10.40;67.86
3260;BME280;68938;48.150;14.004;2024-02-23T08:37:55;96543.38;;;10.43;68.60
3260;BME280;68938;48.150;14.004;2024-02-23T08:40:22;96543.88;;;10.34;68.18
3260;BME280;68938;48.150;14.004;2024-02-23T08:42:49;96543.13;;;10.48;67.98
3260;BME280;68938;48.150;14.004;2024-02-23T08:45:16;96545.50;;;10.51;68.27
3260;BME280;68938;48.150;14.004;2024-02-23T08:47:43;96545.72;;;10.62;68.02
3260;BME280;68938;48.150;14.004;2024-02-23T08:50:10;96541.91;;;10.70;67.43
3260;BME280;68938;48.150;14.004;2024-02-23T08:52:37;96528.41;;;10.82;67.09
3260;BME280;68938;48.150;14.004;2024-02-23T08:55:04;96529.59;;;10.90;66.95
3260;BME280;68938;48.150;14.004;2024-02-23T08:57:31;96523.31;;;10.96;66.39
3260;BME280;68938;48.150;14.004;2024-02-23T08:59:58;96514.44;;;11.02;66.88
3260;BME280;68938;48.150;14.004;2024-02-23T09:02:25;96509.56;;;10.97;66.70
3260;BME280;68938;48.150;14.004;2024-02-23T09:04:52;96509.22;;;11.03;66.83
3260;BME280;68938;48.150;14.004;2024-02-23T09:07:19;96507.75;;;11.13;66.71
3260;BME280;68938;48.150;14.004;2024-02-23T09:09:47;96493.81;;;11.03;67.36
3260;BME280;68938;48.150;14.004;2024-02-23T09:12:15;96487.06;;;11.17;67.19
3260;BME280;68938;48.150;14.004;2024-02-23T09:14:43;96480.66;;;11.24;67.12
3260;BME280;68938;48.150;14.004;2024-02-23T09:17:10;96484.50;;;11.17;65.97
3260;BME280;68938;48.150;14.004;2024-02-23T09:19:37;96481.94;;;11.17;66.14
3260;BME280;68938;48.150;14.004;2024-02-23T09:22:05;96478.19;;;11.22;66.12
3260;BME280;68938;48.150;14.004;2024-02-23T09:24:32;96476.09;;;11.29;66.27
3260;BME280;68938;48.150;14.004;2024-02-23T09:26:58;96485.44;;;11.30;65.79
3260;BME280;68938;48.150;14.004;2024-02-23T09:29:25;96489.09;;;11.26;65.63
3260;BME280;68938;48.150;14.004;2024-02-23T09:31:52;96468.56;;;11.26;64.09
3260;BME280;68938;48.150;14.004;2024-02-23T09:34:19;96468.00;;;11.21;64.02
3260;BME280;68938;48.150;14.004;2024-02-23T09:36:46;96472.78;;;11.27;64.23
3260;BME280;68938;48.150;14.004;2024-02-23T09:39:15;96474.97;;;11.33;64.07
3260;BME280;68938;48.150;14.004;2024-02-23T09:41:42;96468.66;;;11.38;63.81
3260;BME280;68938;48.150;14.004;2024-02-23T09:44:10;96471.66;;;11.31;63.74
3260;BME280;68938;48.150;14.004;2024-02-23T09:46:40;96466.72;;;11.42;63.70
3260;BME280;68938;48.150;14.004;2024-02-23T09:49:07;96477.81;;;11.43;62.92
3260;BME280;68938;48.150;14.004;2024-02-23T09:51:36;96477.25;;;11.52;62.57
3260;BME280;68938;48.150;14.004;2024-02-23T09:54:03;96489.69;;;11.72;62.52
3260;BME280;68938;48.150;14.004;2024-02-23T09:56:30;96484.69;;;11.85;62.58
3260;BME280;68938;48.150;14.004;2024-02-23T09:59:01;96490.91;;;11.95;62.29
3260;BME280;68938;48.150;14.004;2024-02-23T10:01:30;96486.44;;;11.84;60.66
3260;BME280;68938;48.150;14.004;2024-02-23T10:04:00;96490.56;;;11.87;60.27
3260;BME280;68938;48.150;14.004;2024-02-23T10:06:29;96499.72;;;11.91;59.81
3260;BME280;68938;48.150;14.004;2024-02-23T10:08:56;96496.69;;;11.70;59.63
3260;BME280;68938;48.150;14.004;2024-02-23T10:11:24;96487.31;;;11.83;59.93
3260;BME280;68938;48.150;14.004;2024-02-23T10:13:51;96493.34;;;11.82;60.15
3260;BME280;68938;48.150;14.004;2024-02-23T10:16:20;96483.75;;;12.00;60.85
3260;BME280;68938;48.150;14.004;2024-02-23T10:18:48;96486.28;;;12.15;59.95
3260;BME280;68938;48.150;14.004;2024-02-23T10:21:16;96494.94;;;12.26;60.93
3260;BME280;68938;48.150;14.004;2024-02-23T10:23:47;96494.50;;;12.20;59.60
3260;BME280;68938;48.150;14.004;2024-02-23T10:26:15;96494.63;;;12.18;58.94
3260;BME280;68938;48.150;14.004;2024-02-23T10:28:42;96500.38;;;11.66;58.68
3260;BME280;68938;48.150;14.004;2024-02-23T10:31:09;96496.31;;;11.62;59.72
3260;BME280;68938;48.150;14.004;2024-02-23T10:33:39;96498.34;;;11.71;59.08
3260;BME280;68938;48.150;14.004;2024-02-23T10:36:07;96495.69;;;11.58;58.67
3260;BME280;68938;48.150;14.004;2024-02-23T10:38:35;96507.03;;;11.69;59.55
3260;BME280;68938;48.150;14.004;2024-02-23T10:41:05;96511.09;;;11.58;60.02
3260;BME280;68938;48.150;14.004;2024-02-23T10:43:41;96501.72;;;11.72;59.73
3260;BME280;68938;48.150;14.004;2024-02-23T10:46:15;96511.47;;;11.67;59.03
3260;BME280;68938;48.150;14.004;2024-02-23T10:48:44;96508.44;;;11.74;59.80
3260;BME280;68938;48.150;14.004;2024-02-23T10:51:14;96502.38;;;11.61;58.71
3260;BME280;68938;48.150;14.004;2024-02-23T10:53:46;96510.38;;;11.56;59.41
3260;BME280;68938;48.150;14.004;2024-02-23T10:56:15;96508.63;;;11.43;58.92
3260;BME280;68938;48.150;14.004;2024-02-23T10:58:42;96506.41;;;11.36;59.57
3260;BME280;68938;48.150;14.004;2024-02-23T11:01:10;96510.72;;;11.36;59.74
3260;BME280;68938;48.150;14.004;2024-02-23T11:03:42;96507.88;;;11.41;59.69
3260;BME280;68938;48.150;14.004;2024-02-23T11:06:11;96508.63;;;11.28;59.82
3260;BME280;68938;48.150;14.004;2024-02-23T11:08:38;96498.91;;;11.19;60.75
3260;BME280;68938;48.150;14.004;2024-02-23T11:11:10;96506.66;;;11.03;61.15
3260;BME280;68938;48.150;14.004;2024-02-23T11:13:39;96508.69;;;11.12;62.43
3260;BME280;68938;48.150;14.004;2024-02-23T11:16:08;96507.22;;;11.23;62.48
3260;BME280;68938;48.150;14.004;2024-02-23T11:18:35;96501.19;;;11.24;62.99
3260;BME280;68938;48.150;14.004;2024-02-23T11:21:05;96507.59;;;11.17;62.44
3260;BME280;68938;48.150;14.004;2024-02-23T11:23:48;96514.75;;;11.11;62.98
3260;BME280;68938;48.150;14.004;2024-02-23T11:26:15;96506.56;;;11.05;63.17
3260;BME280;68938;48.150;14.004;2024-02-23T11:28:49;96511.06;;;11.01;62.92
3260;BME280;68938;48.150;14.004;2024-02-23T11:31:21;96508.66;;;10.84;64.34
3260;BME280;68938;48.150;14.004;2024-02-23T11:33:50;96509.47;;;10.84;64.79
3260;BME280;68938;48.150;14.004;2024-02-23T11:36:23;96507.28;;;10.93;64.64
3260;BME280;68938;48.150;14.004;2024-02-23T11:38:54;96503.22;;;10.74;65.56
3260;BME280;68938;48.150;14.004;2024-02-23T11:41:25;96494.13;;;10.68;65.67
3260;BME280;68938;48.150;14.004;2024-02-23T11:43:53;96502.81;;;10.66;66.27
3260;BME280;68938;48.150;14.004;2024-02-23T11:46:22;96495.75;;;10.70;66.73
3260;BME280;68938;48.150;14.004;2024-02-23T11:48:49;96503.69;;;10.81;66.86
3260;BME280;68938;48.150;14.004;2024-02-23T11:51:16;96497.28;;;10.88;67.67
3260;BME280;68938;48.150;14.004;2024-02-23T11:53:43;96500.75;;;10.87;67.00
3260;BME280;68938;48.150;14.004;2024-02-23T11:56:10;96507.22;;;10.64;66.89
3260;BME280;68938;48.150;14.004;2024-02-23T11:58:37;96505.44;;;10.34;65.37
3260;BME280;68938;48.150;14.004;2024-02-23T12:01:04;96505.06;;;10.25;64.94
3260;BME280;68938;48.150;14.004;2024-02-23T12:03:31;96511.38;;;10.03;65.22
3260;BME280;68938;48.150;14.004;2024-02-23T12:06:02;96505.59;;;10.00;65.60
3260;BME280;68938;48.150;14.004;2024-02-23T12:08:30;96494.84;;;10.25;65.24
3260;BME280;68938;48.150;14.004;2024-02-23T12:10:57;96489.31;;;10.16;65.63
3260;BME280;68938;48.150;14.004;2024-02-23T12:13:26;96479.97;;;10.31;65.13
3260;BME280;68938;48.150;14.004;2024-02-23T12:15:53;96494.00;;;10.08;67.27
3260;BME280;68938;48.150;14.004;2024-02-23T12:18:23;96499.31;;;10.05;67.39
3260;BME280;68938;48.150;14.004;2024-02-23T12:20:50;96499.00;;;9.95;64.83
3260;BME280;68938;48.150;14.004;2024-02-23T12:23:18;96501.94;;;9.72;64.62
3260;BME280;68938;48.150;14.004;2024-02-23T12:25:56;96514.84;;;9.37;67.30
3260;BME280;68938;48.150;14.004;2024-02-23T12:28:23;96511.91;;;9.45;68.54
3260;BME280;68938;48.150;14.004;2024-02-23T12:31:00;96518.81;;;9.43;67.44
3260;BME280;68938;48.150;14.004;2024-02-23T12:33:32;96523.19;;;9.41;67.97
3260;BME280;68938;48.150;14.004;2024-02-23T12:36:01;96524.53;;;9.48;67.91
3260;BME280;68938;48.150;14.004;2024-02-23T12:38:29;96508.50;;;9.11;68.27
3260;BME280;68938;48.150;14.004;2024-02-23T12:40:56;96511.97;;;8.58;70.49
3260;BME280;68938;48.150;14.004;2024-02-23T12:43:23;96505.56;;;8.67;71.58
3260;BME280;68938;48.150;14.004;2024-02-23T12:45:54;96503.25;;;8.97;71.30
3260;BME280;68938;48.150;14.004;2024-02-23T12:48:22;96503.31;;;9.13;70.88
3260;BME280;68938;48.150;14.004;2024-02-23T12:50:49;96508.84;;;9.21;70.14
3260;BME280;68938;48.150;14.004;2024-02-23T12:53:36;96509.25;;;9.46;69.64
3260;BME280;68938;48.150;14.004;2024-02-23T12:56:09;96508.41;;;9.30;70.63
3260;BME280;68938;48.150;14.004;2024-02-23T12:58:40;96504.41;;;9.24;70.42
3260;BME280;68938;48.150;14.004;2024-02-23T13:01:08;96510.25;;;9.44;70.31
3260;BME280;68938;48.150;14.004;2024-02-23T13:03:36;96497.97;;;9.51;69.85